sensor_id;sensor_type;location;lat;lon;timestamp;temperature;humidity
56512;DHT22;42408;53.238;5.686;2023-08-01T00:00:34;16.70;99.90
56512;DHT22;42408;53.238;5.686;2023-08-01T00:02:59;16.70;99.90
56512;DHT22;42408;53.238;5.686;2023-08-01T00:05:25;16.70;99.90
56512;DHT22;42408;53.238;5.686;2023-08-01T00:07:52;16.70;99.90
56512;DHT22;42408;53.238;5.686;2023-08-01T00:10:17;16.70;99.90
56512;DHT22;42408;53.238;5.686;2023-08-01T00:12:43;16.70;99.90
56512;DHT22;42408;53.238;5.686;2023-08-01T00:15:09;16.70;99.90
56512;DHT22;42408;53.238;5.686;2023-08-01T00:17:35;16.70;99.90
56512;DHT22;42408;53.238;5.686;2023-08-01T00:20:04;16.70;99.90
56512;DHT22;42408;53.238;5.686;2023-08-01T00:22:30;16.70;99.90
56512;DHT22;42408;53.238;5.686;2023-08-01T00:24:55;16.60;99.90
56512;DHT22;42408;53.238;5.686;2023-08-01T00:27:21;16.60;99.90
56512;DHT22;42408;53.238;5.686;2023-08-01T00:29:47;16.60;99.90
56512;DHT22;42408;53.238;5.686;2023-08-01T00:32:13;16.60;99.90
56512;DHT22;42408;53.238;5.686;2023-08-01T00:34:38;16.60;99.90
56512;DHT22;42408;53.238;5.686;2023-08-01T00:37:05;16.50;99.90
56512;DHT22;42408;53.238;5.686;2023-08-01T00:39:30;16.50;99.90
56512;DHT22;42408;53.238;5.686;2023-08-01T00:41:56;16.50;99.90
56512;DHT22;42408;53.238;5.686;2023-08-01T00:44:22;16.50;99.90
56512;DHT22;42408;53.238;5.686;2023-08-01T00:46:48;16.50;99.90
56512;DHT22;42408;53.238;5.686;2023-08-01T00:49:14;16.40;99.90
56512;DHT22;42408;53.238;5.686;2023-08-01T00:51:41;16.30;99.90
56512;DHT22;42408;53.238;5.686;2023-08-01T00:54:06;16.40;99.90
56512;DHT22;42408;53.238;5.686;2023-08-01T00:56:33;16.40;99.90
56512;DHT22;42408;53.238;5.686;2023-08-01T00:58:58;16.40;99.90
56512;DHT22;42408;53.238;5.686;2023-08-01T01:01:24;16.30;99.90
56512;DHT22;42408;53.238;5.686;2023-08-01T01:03:50;16.30;99.90
56512;DHT22;42408;53.238;5.686;2023-08-01T01:09:15;16.30;99.90
56512;DHT22;42408;53.238;5.686;2023-08-01T01:11:41;16.30;99.90
56512;DHT22;42408;53.238;5.686;2023-08-01T01:14:06;16.30;99.90
56512;DHT22;42408;53.238;5.686;2023-08-01T01:16:32;16.30;99.90
56512;DHT22;42408;53.238;5.686;2023-08-01T01:18:57;16.30;99.90
56512;DHT22;42408;53.238;5.686;2023-08-01T01:21:23;16.20;99.90
56512;DHT22;42408;53.238;5.686;2023-08-01T01:23:49;16.20;99.90
56512;DHT22;42408;53.238;5.686;2023-08-01T01:26:16;16.20;99.90
56512;DHT22;42408;53.238;5.686;2023-08-01T01:28:47;16.20;99.90
56512;DHT22;42408;53.238;5.686;2023-08-01T01:31:14;16.30;99.90
56512;DHT22;42408;53.238;5.686;2023-08-01T01:33:40;16.20;99.90
56512;DHT22;42408;53.238;5.686;2023-08-01T01:36:06;16.20;99.90
56512;DHT22;42408;53.238;5.686;2023-08-01T01:38:32;16.20;99.90
56512;DHT22;42408;53.238;5.686;2023-08-01T01:40:58;16.20;99.90
56512;DHT22;42408;53.238;5.686;2023-08-01T01:43:23;16.20;99.90
56512;DHT22;42408;53.238;5.686;2023-08-01T01:45:49;16.20;99.90
56512;DHT22;42408;53.238;5.686;2023-08-01T01:48:14;16.20;99.90
56512;DHT22;42408;53.238;5.686;2023-08-01T01:50:40;16.20;99.90
56512;DHT22;42408;53.238;5.686;2023-08-01T01:53:06;16.20;99.90
56512;DHT22;42408;53.238;5.686;2023-08-01T01:55:31;16.20;99.90
56512;DHT22;42408;53.238;5.686;2023-08-01T01:57:57;16.20;99.90
56512;DHT22;42408;53.238;5.686;2023-08-01T02:00:23;16.20;99.90
56512;DHT22;42408;53.238;5.686;2023-08-01T02:02:48;16.20;99.90
56512;DHT22;42408;53.238;5.686;2023-08-01T02:05:14;16.20;99.90
56512;DHT22;42408;53.238;5.686;2023-08-01T02:07:40;16.20;99.90
56512;DHT22;42408;53.238;5.686;2023-08-01T02:10:06;16.20;99.90
56512;DHT22;42408;53.238;5.686;2023-08-01T02:12:31;16.20;99.90
56512;DHT22;42408;53.238;5.686;2023-08-01T02:14:58;16.10;99.90
56512;DHT22;42408;53.238;5.686;2023-08-01T02:17:24;16.10;99.90
56512;DHT22;42408;53.238;5.686;2023-08-01T02:19:50;16.10;99.90
56512;DHT22;42408;53.238;5.686;2023-08-01T02:22:15;16.10;99.90
56512;DHT22;42408;53.238;5.686;2023-08-01T02:24:41;16.10;99.90
56512;DHT22;42408;53.238;5.686;2023-08-01T02:27:07;16.10;99.90
56512;DHT22;42408;53.238;5.686;2023-08-01T02:29:32;16.10;99.90
56512;DHT22;42408;53.238;5.686;2023-08-01T02:31:58;16.10;99.90
56512;DHT22;42408;53.238;5.686;2023-08-01T02:34:24;16.10;99.90
56512;DHT22;42408;53.238;5.686;2023-08-01T02:36:49;16.10;99.90
56512;DHT22;42408;53.238;5.686;2023-08-01T02:39:15;16.10;99.90
56512;DHT22;42408;53.238;5.686;2023-08-01T02:41:40;16.10;99.90
56512;DHT22;42408;53.238;5.686;2023-08-01T02:44:06;16.10;99.90
56512;DHT22;42408;53.238;5.686;2023-08-01T02:46:32;16.10;99.90
56512;DHT22;42408;53.238;5.686;2023-08-01T02:48:57;16.10;99.90
56512;DHT22;42408;53.238;5.686;2023-08-01T02:51:23;16.00;99.90
56512;DHT22;42408;53.238;5.686;2023-08-01T02:53:49;16.00;99.90
56512;DHT22;42408;53.238;5.686;2023-08-01T02:56:14;16.00;99.90
56512;DHT22;42408;53.238;5.686;2023-08-01T02:58:40;16.00;99.90
56512;DHT22;42408;53.238;5.686;2023-08-01T03:01:08;15.90;99.90
56512;DHT22;42408;53.238;5.686;2023-08-01T03:03:38;15.90;99.90
56512;DHT22;42408;53.238;5.686;2023-08-01T03:06:04;15.90;99.90
56512;DHT22;42408;53.238;5.686;2023-08-01T03:08:30;15.90;99.90
56512;DHT22;42408;53.238;5.686;2023-08-01T03:10:56;15.90;99.90
56512;DHT22;42408;53.238;5.686;2023-08-01T03:13:22;15.80;99.90
56512;DHT22;42408;53.238;5.686;2023-08-01T03:15:47;15.80;99.90
56512;DHT22;42408;53.238;5.686;2023-08-01T03:18:13;15.80;99.90
56512;DHT22;42408;53.238;5.686;2023-08-01T03:20:39;15.80;99.90
56512;DHT22;42408;53.238;5.686;2023-08-01T03:23:05;15.80;99.90
56512;DHT22;42408;53.238;5.686;2023-08-01T03:25:30;15.80;99.90
56512;DHT22;42408;53.238;5.686;2023-08-01T03:27:56;15.80;99.90
56512;DHT22;42408;53.238;5.686;2023-08-01T03:30:22;15.80;99.90
56512;DHT22;42408;53.238;5.686;2023-08-01T03:32:48;15.80;99.90
56512;DHT22;42408;53.238;5.686;2023-08-01T03:35:14;15.80;99.90
56512;DHT22;42408;53.238;5.686;2023-08-01T03:37:40;15.80;99.90
56512;DHT22;42408;53.238;5.686;2023-08-01T03:40:06;15.80;99.90
56512;DHT22;42408;53.238;5.686;2023-08-01T03:42:36;15.70;99.90
56512;DHT22;42408;53.238;5.686;2023-08-01T03:45:02;15.80;99.90
56512;DHT22;42408;53.238;5.686;2023-08-01T03:47:28;15.70;99.90
56512;DHT22;42408;53.238;5.686;2023-08-01T03:49:54;15.70;99.90
56512;DHT22;42408;53.238;5.686;2023-08-01T03:52:20;15.80;99.90
56512;DHT22;42408;53.238;5.686;2023-08-01T03:54:46;15.80;99.90
56512;DHT22;42408;53.238;5.686;2023-08-01T03:57:11;15.80;99.90
56512;DHT22;42408;53.238;5.686;2023-08-01T03:59:37;15.80;99.90
56512;DHT22;42408;53.238;5.686;2023-08-01T04:02:03;15.80;99.90
56512;DHT22;42408;53.238;5.686;2023-08-01T04:04:29;15.80;99.90
56512;DHT22;42408;53.238;5.686;2023-08-01T04:06:56;15.80;99.90
56512;DHT22;42408;53.238;5.686;2023-08-01T04:09:22;15.80;99.90
56512;DHT22;42408;53.238;5.686;2023-08-01T04:11:48;15.80;99.90
56512;DHT22;42408;53.238;5.686;2023-08-01T04:14:14;15.80;99.90
56512;DHT22;42408;53.238;5.686;2023-08-01T04:16:39;15.90;99.90
56512;DHT22;42408;53.238;5.686;2023-08-01T04:19:05;15.90;99.90
56512;DHT22;42408;53.238;5.686;2023-08-01T04:21:30;15.90;99.90
56512;DHT22;42408;53.238;5.686;2023-08-01T04:23:56;15.90;99.90
56512;DHT22;42408;53.238;5.686;2023-08-01T04:26:22;15.90;99.90
56512;DHT22;42408;53.238;5.686;2023-08-01T04:28:47;15.90;99.90
56512;DHT22;42408;53.238;5.686;2023-08-01T04:31:14;15.90;99.90
56512;DHT22;42408;53.238;5.686;2023-08-01T04:33:39;15.90;99.90
56512;DHT22;42408;53.238;5.686;2023-08-01T04:36:05;15.90;99.90
56512;DHT22;42408;53.238;5.686;2023-08-01T04:38:30;15.90;99.90
56512;DHT22;42408;53.238;5.686;2023-08-01T04:40:56;15.90;99.90
56512;DHT22;42408;53.238;5.686;2023-08-01T04:43:22;15.90;99.90
56512;DHT22;42408;53.238;5.686;2023-08-01T04:45:47;15.90;99.90
56512;DHT22;42408;53.238;5.686;2023-08-01T04:48:13;15.90;99.90
56512;DHT22;42408;53.238;5.686;2023-08-01T04:50:39;15.90;99.90
56512;DHT22;42408;53.238;5.686;2023-08-01T04:53:04;15.90;99.90
56512;DHT22;42408;53.238;5.686;2023-08-01T04:55:31;15.90;99.90
56512;DHT22;42408;53.238;5.686;2023-08-01T04:57:57;15.90;99.90
56512;DHT22;42408;53.238;5.686;2023-08-01T05:00:23;15.90;99.90
56512;DHT22;42408;53.238;5.686;2023-08-01T05:02:49;15.90;99.90
56512;DHT22;42408;53.238;5.686;2023-08-01T05:05:14;16.00;99.90
56512;DHT22;42408;53.238;5.686;2023-08-01T05:07:41;16.00;99.90
56512;DHT22;42408;53.238;5.686;2023-08-01T05:10:07;15.90;99.90
56512;DHT22;42408;53.238;5.686;2023-08-01T05:12:33;15.90;99.90
56512;DHT22;42408;53.238;5.686;2023-08-01T05:14:59;15.80;99.90
56512;DHT22;42408;53.238;5.686;2023-08-01T05:17:24;15.80;99.90
56512;DHT22;42408;53.238;5.686;2023-08-01T05:19:50;15.80;99.90
56512;DHT22;42408;53.238;5.686;2023-08-01T05:22:16;15.80;99.90
56512;DHT22;42408;53.238;5.686;2023-08-01T05:24:41;15.80;99.90
56512;DHT22;42408;53.238;5.686;2023-08-01T05:27:07;15.70;99.90
56512;DHT22;42408;53.238;5.686;2023-08-01T05:29:33;15.70;99.90
56512;DHT22;42408;53.238;5.686;2023-08-01T05:31:58;15.80;99.90
56512;DHT22;42408;53.238;5.686;2023-08-01T05:34:24;15.70;99.90
56512;DHT22;42408;53.238;5.686;2023-08-01T05:36:50;15.70;99.90
56512;DHT22;42408;53.238;5.686;2023-08-01T05:39:16;15.70;99.90
56512;DHT22;42408;53.238;5.686;2023-08-01T05:41:42;15.70;99.90
56512;DHT22;42408;53.238;5.686;2023-08-01T05:44:08;15.70;99.90
56512;DHT22;42408;53.238;5.686;2023-08-01T05:46:34;15.80;99.90
56512;DHT22;42408;53.238;5.686;2023-08-01T05:48:59;15.70;99.90
56512;DHT22;42408;53.238;5.686;2023-08-01T05:51:25;15.80;99.90
56512;DHT22;42408;53.238;5.686;2023-08-01T05:53:51;15.80;99.90
56512;DHT22;42408;53.238;5.686;2023-08-01T05:56:16;15.90;99.90
56512;DHT22;42408;53.238;5.686;2023-08-01T05:58:42;15.90;99.90
56512;DHT22;42408;53.238;5.686;2023-08-01T06:01:10;16.00;99.90
56512;DHT22;42408;53.238;5.686;2023-08-01T06:03:37;15.90;99.90
56512;DHT22;42408;53.238;5.686;2023-08-01T06:06:03;16.00;99.90
56512;DHT22;42408;53.238;5.686;2023-08-01T06:08:29;16.00;99.90
56512;DHT22;42408;53.238;5.686;2023-08-01T06:10:55;16.00;99.90
56512;DHT22;42408;53.238;5.686;2023-08-01T06:13:21;16.00;99.90
56512;DHT22;42408;53.238;5.686;2023-08-01T06:15:46;16.00;99.90
56512;DHT22;42408;53.238;5.686;2023-08-01T06:18:12;16.00;99.90
56512;DHT22;42408;53.238;5.686;2023-08-01T06:20:38;16.00;99.90
56512;DHT22;42408;53.238;5.686;2023-08-01T06:23:04;16.00;99.90
56512;DHT22;42408;53.238;5.686;2023-08-01T06:25:30;16.00;99.90
56512;DHT22;42408;53.238;5.686;2023-08-01T06:27:56;16.00;99.90
56512;DHT22;42408;53.238;5.686;2023-08-01T06:30:21;15.90;99.90
56512;DHT22;42408;53.238;5.686;2023-08-01T06:32:47;15.90;99.90
56512;DHT22;42408;53.238;5.686;2023-08-01T06:35:13;15.90;99.90
56512;DHT22;42408;53.238;5.686;2023-08-01T06:37:38;15.90;99.90
56512;DHT22;42408;53.238;5.686;2023-08-01T06:40:04;15.90;99.90
56512;DHT22;42408;53.238;5.686;2023-08-01T06:42:30;15.90;99.90
56512;DHT22;42408;53.238;5.686;2023-08-01T06:44:56;15.90;99.90
56512;DHT22;42408;53.238;5.686;2023-08-01T06:47:22;15.90;99.90
56512;DHT22;42408;53.238;5.686;2023-08-01T06:49:47;15.90;99.90
56512;DHT22;42408;53.238;5.686;2023-08-01T06:52:13;16.00;99.90
56512;DHT22;42408;53.238;5.686;2023-08-01T06:54:39;16.10;99.90
56512;DHT22;42408;53.238;5.686;2023-08-01T06:57:06;16.20;99.90
56512;DHT22;42408;53.238;5.686;2023-08-01T06:59:31;16.20;99.90
56512;DHT22;42408;53.238;5.686;2023-08-01T07:01:57;16.40;99.90
56512;DHT22;42408;53.238;5.686;2023-08-01T07:04:23;16.50;99.90
56512;DHT22;42408;53.238;5.686;2023-08-01T07:06:49;16.50;99.90
56512;DHT22;42408;53.238;5.686;2023-08-01T07:09:15;16.60;99.90
56512;DHT22;42408;53.238;5.686;2023-08-01T07:11:40;16.70;99.90
56512;DHT22;42408;53.238;5.686;2023-08-01T07:14:06;16.80;99.90
56512;DHT22;42408;53.238;5.686;2023-08-01T07:16:32;16.80;99.90
56512;DHT22;42408;53.238;5.686;2023-08-01T07:19:00;16.90;99.90
56512;DHT22;42408;53.238;5.686;2023-08-01T07:21:26;16.90;99.90
56512;DHT22;42408;53.238;5.686;2023-08-01T07:23:52;16.90;99.90
56512;DHT22;42408;53.238;5.686;2023-08-01T07:26:17;16.80;99.90
56512;DHT22;42408;53.238;5.686;2023-08-01T07:28:43;16.80;99.90
56512;DHT22;42408;53.238;5.686;2023-08-01T07:31:09;16.70;99.90
56512;DHT22;42408;53.238;5.686;2023-08-01T07:33:35;16.60;99.90
56512;DHT22;42408;53.238;5.686;2023-08-01T07:36:02;16.60;99.90
56512;DHT22;42408;53.238;5.686;2023-08-01T07:38:28;16.60;99.90
56512;DHT22;42408;53.238;5.686;2023-08-01T07:40:55;16.40;99.90
56512;DHT22;42408;53.238;5.686;2023-08-01T07:43:21;16.40;99.90
56512;DHT22;42408;53.238;5.686;2023-08-01T07:45:47;16.30;99.90
56512;DHT22;42408;53.238;5.686;2023-08-01T07:48:15;16.40;99.90
56512;DHT22;42408;53.238;5.686;2023-08-01T07:50:41;16.30;99.90
56512;DHT22;42408;53.238;5.686;2023-08-01T07:53:07;16.30;99.90
56512;DHT22;42408;53.238;5.686;2023-08-01T07:55:36;16.30;99.90
56512;DHT22;42408;53.238;5.686;2023-08-01T07:58:01;16.30;99.90
56512;DHT22;42408;53.238;5.686;2023-08-01T08:00:27;16.40;99.90
56512;DHT22;42408;53.238;5.686;2023-08-01T08:02:53;16.50;99.90
56512;DHT22;42408;53.238;5.686;2023-08-01T08:05:19;16.50;99.90
56512;DHT22;42408;53.238;5.686;2023-08-01T08:07:44;16.70;99.90
56512;DHT22;42408;53.238;5.686;2023-08-01T08:10:10;16.60;99.90
56512;DHT22;42408;53.238;5.686;2023-08-01T08:12:36;16.60;99.90
56512;DHT22;42408;53.238;5.686;2023-08-01T08:15:02;16.60;99.90
56512;DHT22;42408;53.238;5.686;2023-08-01T08:17:28;16.60;99.90
56512;DHT22;42408;53.238;5.686;2023-08-01T08:19:54;16.60;99.90
56512;DHT22;42408;53.238;5.686;2023-08-01T08:22:19;16.60;99.90
56512;DHT22;42408;53.238;5.686;2023-08-01T08:24:45;16.60;99.90
56512;DHT22;42408;53.238;5.686;2023-08-01T08:27:11;16.70;99.90
56512;DHT22;42408;53.238;5.686;2023-08-01T08:29:36;16.80;99.90
56512;DHT22;42408;53.238;5.686;2023-08-01T08:32:02;16.90;99.90
56512;DHT22;42408;53.238;5.686;2023-08-01T08:34:28;17.00;99.90
56512;DHT22;42408;53.238;5.686;2023-08-01T08:36:53;17.00;99.90
56512;DHT22;42408;53.238;5.686;2023-08-01T08:39:19;17.30;99.90
56512;DHT22;42408;53.238;5.686;2023-08-01T08:41:50;17.70;99.90
56512;DHT22;42408;53.238;5.686;2023-08-01T08:44:18;18.00;99.90
56512;DHT22;42408;53.238;5.686;2023-08-01T08:46:51;18.20;99.90
56512;DHT22;42408;53.238;5.686;2023-08-01T08:49:19;18.60;99.90
56512;DHT22;42408;53.238;5.686;2023-08-01T08:51:46;18.80;99.90
56512;DHT22;42408;53.238;5.686;2023-08-01T08:54:13;19.10;99.90
56512;DHT22;42408;53.238;5.686;2023-08-01T08:56:40;19.30;99.90
56512;DHT22;42408;53.238;5.686;2023-08-01T08:59:07;19.40;99.90
56512;DHT22;42408;53.238;5.686;2023-08-01T09:01:33;19.50;99.90
56512;DHT22;42408;53.238;5.686;2023-08-01T09:03:59;19.50;99.90
56512;DHT22;42408;53.238;5.686;2023-08-01T09:06:32;19.50;99.90
56512;DHT22;42408;53.238;5.686;2023-08-01T09:11:38;19.40;99.90
56512;DHT22;42408;53.238;5.686;2023-08-01T09:14:04;19.50;99.90
56512;DHT22;42408;53.238;5.686;2023-08-01T09:16:29;19.40;99.90
56512;DHT22;42408;53.238;5.686;2023-08-01T09:18:55;19.40;99.90
56512;DHT22;42408;53.238;5.686;2023-08-01T09:21:22;19.30;99.90
56512;DHT22;42408;53.238;5.686;2023-08-01T09:23:48;19.30;99.90
56512;DHT22;42408;53.238;5.686;2023-08-01T09:26:17;19.20;99.90
56512;DHT22;42408;53.238;5.686;2023-08-01T09:28:43;19.30;99.90
56512;DHT22;42408;53.238;5.686;2023-08-01T09:31:10;19.20;99.90
56512;DHT22;42408;53.238;5.686;2023-08-01T09:33:42;19.20;99.90
56512;DHT22;42408;53.238;5.686;2023-08-01T09:36:08;19.30;99.90
56512;DHT22;42408;53.238;5.686;2023-08-01T09:38:35;19.30;99.90
56512;DHT22;42408;53.238;5.686;2023-08-01T09:41:01;19.40;99.90
56512;DHT22;42408;53.238;5.686;2023-08-01T09:43:34;19.50;99.90
56512;DHT22;42408;53.238;5.686;2023-08-01T09:46:06;19.60;99.90
56512;DHT22;42408;53.238;5.686;2023-08-01T09:48:31;19.70;99.90
56512;DHT22;42408;53.238;5.686;2023-08-01T09:51:11;19.80;99.90
56512;DHT22;42408;53.238;5.686;2023-08-01T09:53:54;20.00;99.90
56512;DHT22;42408;53.238;5.686;2023-08-01T09:56:23;20.10;99.90
56512;DHT22;42408;53.238;5.686;2023-08-01T09:58:50;20.20;99.90
56512;DHT22;42408;53.238;5.686;2023-08-01T10:01:17;20.20;99.90
56512;DHT22;42408;53.238;5.686;2023-08-01T10:03:46;20.30;99.90
56512;DHT22;42408;53.238;5.686;2023-08-01T10:06:20;20.40;99.90
56512;DHT22;42408;53.238;5.686;2023-08-01T10:08:47;20.40;99.90
56512;DHT22;42408;53.238;5.686;2023-08-01T10:11:21;20.30;99.90
56512;DHT22;42408;53.238;5.686;2023-08-01T10:13:47;20.40;99.90
56512;DHT22;42408;53.238;5.686;2023-08-01T10:16:14;20.50;99.90
56512;DHT22;42408;53.238;5.686;2023-08-01T10:18:40;20.60;99.90
56512;DHT22;42408;53.238;5.686;2023-08-01T10:21:08;20.80;99.90
56512;DHT22;42408;53.238;5.686;2023-08-01T10:23:35;21.00;99.90
56512;DHT22;42408;53.238;5.686;2023-08-01T10:26:03;21.30;99.90
56512;DHT22;42408;53.238;5.686;2023-08-01T10:28:36;21.50;99.90
56512;DHT22;42408;53.238;5.686;2023-08-01T10:33:36;21.70;99.90
56512;DHT22;42408;53.238;5.686;2023-08-01T10:36:18;21.60;99.90
56512;DHT22;42408;53.238;5.686;2023-08-01T10:38:55;21.60;99.90
56512;DHT22;42408;53.238;5.686;2023-08-01T10:41:22;21.80;99.90
56512;DHT22;42408;53.238;5.686;2023-08-01T10:43:47;21.90;99.90
56512;DHT22;42408;53.238;5.686;2023-08-01T10:46:13;21.90;99.90
56512;DHT22;42408;53.238;5.686;2023-08-01T10:48:49;21.70;99.90
56512;DHT22;42408;53.238;5.686;2023-08-01T10:51:15;21.60;99.90
56512;DHT22;42408;53.238;5.686;2023-08-01T10:53:41;21.50;99.90
56512;DHT22;42408;53.238;5.686;2023-08-01T10:56:07;21.50;99.90
56512;DHT22;42408;53.238;5.686;2023-08-01T10:58:34;21.40;99.90
56512;DHT22;42408;53.238;5.686;2023-08-01T11:01:00;21.40;99.90
56512;DHT22;42408;53.238;5.686;2023-08-01T11:03:36;21.40;99.90
56512;DHT22;42408;53.238;5.686;2023-08-01T11:06:02;21.30;99.90
56512;DHT22;42408;53.238;5.686;2023-08-01T11:08:39;21.20;99.90
56512;DHT22;42408;53.238;5.686;2023-08-01T11:11:07;21.20;99.90
56512;DHT22;42408;53.238;5.686;2023-08-01T11:13:33;21.10;99.90
56512;DHT22;42408;53.238;5.686;2023-08-01T11:16:01;21.10;99.90
56512;DHT22;42408;53.238;5.686;2023-08-01T11:18:27;21.10;99.90
56512;DHT22;42408;53.238;5.686;2023-08-01T11:20:52;20.90;99.90
56512;DHT22;42408;53.238;5.686;2023-08-01T11:23:18;20.90;99.90
56512;DHT22;42408;53.238;5.686;2023-08-01T11:25:44;21.00;99.90
56512;DHT22;42408;53.238;5.686;2023-08-01T11:28:16;21.20;99.90
56512;DHT22;42408;53.238;5.686;2023-08-01T11:30:42;21.40;99.90
56512;DHT22;42408;53.238;5.686;2023-08-01T11:33:24;21.50;99.90
56512;DHT22;42408;53.238;5.686;2023-08-01T11:35:51;21.70;99.90
56512;DHT22;42408;53.238;5.686;2023-08-01T11:38:20;21.90;99.90
56512;DHT22;42408;53.238;5.686;2023-08-01T11:40:47;22.10;99.90
56512;DHT22;42408;53.238;5.686;2023-08-01T11:43:15;22.20;99.90
56512;DHT22;42408;53.238;5.686;2023-08-01T11:45:54;22.30;99.90
56512;DHT22;42408;53.238;5.686;2023-08-01T11:48:21;22.50;99.90
56512;DHT22;42408;53.238;5.686;2023-08-01T11:50:48;22.50;99.90
56512;DHT22;42408;53.238;5.686;2023-08-01T11:53:19;22.40;99.90
56512;DHT22;42408;53.238;5.686;2023-08-01T11:55:44;22.60;99.90
56512;DHT22;42408;53.238;5.686;2023-08-01T11:58:10;22.80;99.90
56512;DHT22;42408;53.238;5.686;2023-08-01T12:00:36;22.90;99.90
56512;DHT22;42408;53.238;5.686;2023-08-01T12:03:06;22.80;99.90
56512;DHT22;42408;53.238;5.686;2023-08-01T12:05:33;22.60;99.90
56512;DHT22;42408;53.238;5.686;2023-08-01T12:08:12;22.40;99.90
56512;DHT22;42408;53.238;5.686;2023-08-01T12:10:42;22.20;99.90
56512;DHT22;42408;53.238;5.686;2023-08-01T12:13:25;22.20;99.90
56512;DHT22;42408;53.238;5.686;2023-08-01T12:15:52;22.10;99.90
56512;DHT22;42408;53.238;5.686;2023-08-01T12:18:26;22.10;99.90
56512;DHT22;42408;53.238;5.686;2023-08-01T12:20:52;22.20;99.90
56512;DHT22;42408;53.238;5.686;2023-08-01T12:23:18;22.30;99.90
56512;DHT22;42408;53.238;5.686;2023-08-01T12:25:44;22.40;99.90
56512;DHT22;42408;53.238;5.686;2023-08-01T12:28:11;22.40;99.90
56512;DHT22;42408;53.238;5.686;2023-08-01T12:30:39;22.40;99.90
56512;DHT22;42408;53.238;5.686;2023-08-01T12:33:06;22.30;99.90
56512;DHT22;42408;53.238;5.686;2023-08-01T12:35:31;22.20;99.90
56512;DHT22;42408;53.238;5.686;2023-08-01T12:37:57;22.20;99.90
56512;DHT22;42408;53.238;5.686;2023-08-01T12:40:23;22.20;99.90
56512;DHT22;42408;53.238;5.686;2023-08-01T12:42:48;22.20;99.90
56512;DHT22;42408;53.238;5.686;2023-08-01T12:45:14;22.20;99.90
56512;DHT22;42408;53.238;5.686;2023-08-01T12:47:40;22.30;99.90
56512;DHT22;42408;53.238;5.686;2023-08-01T12:50:06;22.20;99.90
56512;DHT22;42408;53.238;5.686;2023-08-01T12:52:32;22.00;99.90
56512;DHT22;42408;53.238;5.686;2023-08-01T12:54:57;21.80;99.90
56512;DHT22;42408;53.238;5.686;2023-08-01T12:57:23;21.50;99.90
56512;DHT22;42408;53.238;5.686;2023-08-01T12:59:49;21.40;99.90
56512;DHT22;42408;53.238;5.686;2023-08-01T13:02:14;21.30;99.90
56512;DHT22;42408;53.238;5.686;2023-08-01T13:04:40;21.40;99.90
56512;DHT22;42408;53.238;5.686;2023-08-01T13:07:06;21.50;99.90
56512;DHT22;42408;53.238;5.686;2023-08-01T13:09:31;21.50;99.90
56512;DHT22;42408;53.238;5.686;2023-08-01T13:11:57;21.50;99.90
56512;DHT22;42408;53.238;5.686;2023-08-01T13:14:25;21.50;99.90
56512;DHT22;42408;53.238;5.686;2023-08-01T13:16:51;21.70;99.90
56512;DHT22;42408;53.238;5.686;2023-08-01T13:19:17;21.90;99.90
56512;DHT22;42408;53.238;5.686;2023-08-01T13:21:43;22.00;99.90
56512;DHT22;42408;53.238;5.686;2023-08-01T13:24:08;22.00;99.90
56512;DHT22;42408;53.238;5.686;2023-08-01T13:26:35;22.10;99.90
56512;DHT22;42408;53.238;5.686;2023-08-01T13:29:01;22.00;99.90
56512;DHT22;42408;53.238;5.686;2023-08-01T13:31:27;22.00;99.90
56512;DHT22;42408;53.238;5.686;2023-08-01T13:33:54;22.00;99.90
56512;DHT22;42408;53.238;5.686;2023-08-01T13:36:20;21.90;99.90
56512;DHT22;42408;53.238;5.686;2023-08-01T13:38:46;21.80;99.90
56512;DHT22;42408;53.238;5.686;2023-08-01T13:41:11;21.60;99.90
56512;DHT22;42408;53.238;5.686;2023-08-01T13:43:37;21.50;99.90
56512;DHT22;42408;53.238;5.686;2023-08-01T13:46:17;21.30;99.90
56512;DHT22;42408;53.238;5.686;2023-08-01T13:48:44;21.20;99.90
56512;DHT22;42408;53.238;5.686;2023-08-01T13:51:10;21.10;99.90
56512;DHT22;42408;53.238;5.686;2023-08-01T13:53:35;21.10;99.90
56512;DHT22;42408;53.238;5.686;2023-08-01T13:56:07;21.20;99.90
56512;DHT22;42408;53.238;5.686;2023-08-01T13:58:33;21.20;99.90
56512;DHT22;42408;53.238;5.686;2023-08-01T14:01:05;21.30;99.90
56512;DHT22;42408;53.238;5.686;2023-08-01T14:03:37;21.30;99.90
56512;DHT22;42408;53.238;5.686;2023-08-01T14:06:07;21.30;99.90
56512;DHT22;42408;53.238;5.686;2023-08-01T14:08:33;21.40;99.90
56512;DHT22;42408;53.238;5.686;2023-08-01T14:11:00;21.30;99.90
56512;DHT22;42408;53.238;5.686;2023-08-01T14:13:26;21.20;99.90
56512;DHT22;42408;53.238;5.686;2023-08-01T14:15:51;21.10;99.90
56512;DHT22;42408;53.238;5.686;2023-08-01T14:18:17;21.10;99.90
56512;DHT22;42408;53.238;5.686;2023-08-01T14:20:42;21.00;99.90
56512;DHT22;42408;53.238;5.686;2023-08-01T14:23:08;21.10;99.90
56512;DHT22;42408;53.238;5.686;2023-08-01T14:25:34;21.30;99.90
56512;DHT22;42408;53.238;5.686;2023-08-01T14:28:00;21.50;99.90
56512;DHT22;42408;53.238;5.686;2023-08-01T14:30:26;21.50;99.90
56512;DHT22;42408;53.238;5.686;2023-08-01T14:32:59;21.60;99.90
56512;DHT22;42408;53.238;5.686;2023-08-01T14:35:25;21.60;99.90
56512;DHT22;42408;53.238;5.686;2023-08-01T14:37:51;21.60;99.90
56512;DHT22;42408;53.238;5.686;2023-08-01T14:40:16;21.50;99.90
56512;DHT22;42408;53.238;5.686;2023-08-01T14:42:42;21.50;99.90
56512;DHT22;42408;53.238;5.686;2023-08-01T14:45:08;21.50;99.90
56512;DHT22;42408;53.238;5.686;2023-08-01T14:47:34;21.50;99.90
56512;DHT22;42408;53.238;5.686;2023-08-01T14:50:00;21.60;99.90
56512;DHT22;42408;53.238;5.686;2023-08-01T14:52:25;21.50;99.90
56512;DHT22;42408;53.238;5.686;2023-08-01T14:54:51;21.40;99.90
56512;DHT22;42408;53.238;5.686;2023-08-01T14:57:16;21.40;99.90
56512;DHT22;42408;53.238;5.686;2023-08-01T14:59:42;21.40;99.90
56512;DHT22;42408;53.238;5.686;2023-08-01T15:02:08;21.40;99.90
56512;DHT22;42408;53.238;5.686;2023-08-01T15:04:33;21.40;99.90
56512;DHT22;42408;53.238;5.686;2023-08-01T15:07:01;21.40;99.90
56512;DHT22;42408;53.238;5.686;2023-08-01T15:09:27;21.40;99.90
56512;DHT22;42408;53.238;5.686;2023-08-01T15:11:53;21.30;99.90
56512;DHT22;42408;53.238;5.686;2023-08-01T15:14:18;21.20;99.90
56512;DHT22;42408;53.238;5.686;2023-08-01T15:16:44;21.20;99.90
56512;DHT22;42408;53.238;5.686;2023-08-01T15:19:09;21.20;99.90
56512;DHT22;42408;53.238;5.686;2023-08-01T15:21:35;21.10;99.90
56512;DHT22;42408;53.238;5.686;2023-08-01T15:24:01;21.00;99.90
56512;DHT22;42408;53.238;5.686;2023-08-01T15:26:27;21.00;99.90
56512;DHT22;42408;53.238;5.686;2023-08-01T15:28:53;21.00;99.90
56512;DHT22;42408;53.238;5.686;2023-08-01T15:31:18;20.80;99.90
56512;DHT22;42408;53.238;5.686;2023-08-01T15:33:44;20.90;99.90